createdAt,value
2018-02-22T00:00:55.681Z,54.57
2018-02-22T00:03:22.122Z,52.07
2018-02-22T00:05:48.138Z,56.30
2018-02-22T00:08:14.127Z,53.47
2018-02-22T00:10:40.118Z,56.20
2018-02-22T00:13:06.160Z,57.50
2018-02-22T00:15:32.192Z,52.10
2018-02-22T00:17:58.219Z,51.43
2018-02-22T00:20:24.210Z,55.87
2018-02-22T00:22:50.691Z,50.07
2018-02-22T00:25:16.753Z,51.07
2018-02-22T00:27:43.130Z,54.17
2018-02-22T00:30:09.115Z,51.97
2018-02-22T00:32:35.185Z,50.83
2018-02-22T00:35:01.183Z,55.40
2018-02-22T00:37:27.270Z,51.97
2018-02-22T00:39:53.277Z,48.57
2018-02-22T00:42:19.262Z,50.77
2018-02-22T00:44:45.311Z,49.03
2018-02-22T00:47:11.295Z,50.47
2018-02-22T00:49:37.319Z,49.47
2018-02-22T00:52:03.322Z,50.23
2018-02-22T00:54:29.318Z,48.40
2018-02-22T00:56:55.309Z,48.40
2018-02-22T00:59:21.638Z,50.63
2018-02-22T01:01:47.767Z,50.67
2018-02-22T01:04:14.103Z,51.10
2018-02-22T01:06:40.108Z,52.00
2018-02-22T01:09:06.103Z,51.93
2018-02-22T01:11:32.143Z,52.70
2018-02-22T01:13:58.172Z,50.13
2018-02-22T01:16:24.219Z,43.67
2018-02-22T01:18:50.650Z,47.27
2018-02-22T01:21:16.708Z,51.40
2018-02-22T01:23:42.724Z,50.77
2018-02-22T01:26:08.776Z,52.17
2018-02-22T01:28:34.771Z,50.73
2018-02-22T01:31:00.782Z,53.43
2018-02-22T01:33:26.775Z,48.97
2018-02-22T01:35:52.783Z,50.60
2018-02-22T01:38:18.826Z,46.33
2018-02-22T01:40:44.855Z,50.33
2018-02-22T01:43:10.894Z,46.47
2018-02-22T01:45:36.922Z,53.33
2018-02-22T01:48:03.342Z,50.93
2018-02-22T01:50:29.392Z,51.77
2018-02-22T01:52:55.395Z,44.47
2018-02-22T01:55:21.626Z,47.87
2018-02-22T01:57:47.693Z,50.37
2018-02-22T02:00:13.691Z,50.97
2018-02-22T02:02:40.186Z,54.60
2018-02-22T02:05:06.223Z,46.90
2018-02-22T02:07:32.964Z,51.27
2018-02-22T02:09:59.394Z,49.50
2018-02-22T02:12:25.417Z,46.17
2018-02-22T02:14:51.477Z,47.70
2018-02-22T02:17:17.558Z,52.20
2018-02-22T02:19:43.578Z,48.03
2018-02-22T02:22:10.342Z,49.47
2018-02-22T02:24:36.370Z,50.20
2018-02-22T02:27:02.438Z,50.57
2018-02-22T02:29:28.455Z,56.20
2018-02-22T02:31:54.509Z,56.53
2018-02-22T02:34:20.501Z,46.93
2018-02-22T02:36:46.509Z,51.00
2018-02-22T02:39:12.580Z,52.83
2018-02-22T02:41:38.648Z,47.07
2018-02-22T02:44:04.667Z,47.50
2018-02-22T02:46:30.750Z,46.93
2018-02-22T02:48:56.802Z,47.17
2018-02-22T02:51:22.833Z,48.40
2018-02-22T02:53:48.852Z,51.63
2018-02-22T02:56:15.310Z,47.67
2018-02-22T02:58:41.348Z,54.27
2018-02-22T03:01:07.357Z,51.20
2018-02-22T03:03:33.732Z,46.77
2018-02-22T03:05:59.743Z,52.00
2018-02-22T03:08:25.739Z,46.33
2018-02-22T03:10:51.780Z,51.83
2018-02-22T03:13:17.771Z,46.30
2018-02-22T03:15:43.807Z,44.37
2018-02-22T03:18:10.128Z,52.43
2018-02-22T03:20:36.173Z,43.83
2018-02-22T03:23:02.231Z,44.90
2018-02-22T03:25:28.247Z,42.43
2018-02-22T03:27:54.278Z,45.17
2018-02-22T03:30:20.294Z,48.77
2018-02-22T03:32:46.355Z,50.37
2018-02-22T03:35:12.390Z,46.07
2018-02-22T03:37:38.382Z,49.57
2018-02-22T03:40:05.213Z,51.27
2018-02-22T03:42:31.197Z,47.23
2018-02-22T03:44:57.178Z,42.63
2018-02-22T03:47:23.206Z,46.50
2018-02-22T03:49:49.228Z,50.03
2018-02-22T03:52:15.367Z,48.53
2018-02-22T03:54:41.366Z,46.40
2018-02-22T03:57:07.394Z,43.63
2018-02-22T03:59:34.155Z,46.20
2018-02-22T04:02:00.193Z,47.60
2018-02-22T04:04:26.182Z,45.37
2018-02-22T04:06:52.626Z,48.03
2018-02-22T04:09:18.625Z,45.67
2018-02-22T04:11:44.663Z,44.43
2018-02-22T04:14:10.719Z,46.83
2018-02-22T04:16:36.750Z,41.80
2018-02-22T04:19:02.779Z,48.57
2018-02-22T04:21:28.999Z,40.23
2018-02-22T04:23:55.047Z,45.00
2018-02-22T04:26:21.033Z,43.13
2018-02-22T04:28:47.022Z,46.03
2018-02-22T04:31:13.270Z,42.43
2018-02-22T04:33:39.311Z,40.60
2018-02-22T04:36:05.345Z,42.37
2018-02-22T04:38:31.354Z,45.50
2018-02-22T04:40:57.342Z,43.27
2018-02-22T04:43:23.367Z,40.77
2018-02-22T04:45:49.417Z,43.60
2018-02-22T04:48:15.410Z,40.63
2018-02-22T04:50:41.439Z,39.90
2018-02-22T04:53:07.570Z,45.30
2018-02-22T04:55:33.557Z,44.17
2018-02-22T04:57:59.577Z,48.10
2018-02-22T05:00:25.881Z,40.90
2018-02-22T05:02:52.195Z,43.97
2018-02-22T05:05:18.224Z,42.27
2018-02-22T05:07:44.228Z,44.03
2018-02-22T05:10:10.307Z,43.03
2018-02-22T05:12:36.335Z,41.73
2018-02-22T05:15:02.367Z,43.93
2018-02-22T05:17:28.394Z,40.97
2018-02-22T05:19:54.978Z,41.63
2018-02-22T05:22:21.427Z,37.13
2018-02-22T05:24:47.515Z,45.83
2018-02-22T05:27:14.476Z,45.17
2018-02-22T05:29:40.734Z,44.20
2018-02-22T05:32:06.726Z,42.73
2018-02-22T05:34:32.751Z,44.33
2018-02-22T05:36:58.792Z,43.60
2018-02-22T05:39:24.758Z,43.17
2018-02-22T05:41:50.806Z,44.00
2018-02-22T05:44:16.847Z,42.07
2018-02-22T05:46:42.867Z,40.63
2018-02-22T05:49:09.303Z,41.50
2018-02-22T05:51:35.539Z,43.23
2018-02-22T05:54:01.581Z,44.00
2018-02-22T05:56:28.213Z,41.53
2018-02-22T05:58:54.259Z,42.00
2018-02-22T06:01:20.263Z,39.00
2018-02-22T06:03:46.674Z,39.17
2018-02-22T06:06:12.704Z,38.33
2018-02-22T06:08:38.727Z,42.47
2018-02-22T06:11:04.715Z,39.77
2018-02-22T06:13:30.803Z,40.97
2018-02-22T06:15:57.194Z,40.00
2018-02-22T06:18:23.639Z,39.93
2018-02-22T06:20:49.660Z,40.53
2018-02-22T06:23:15.679Z,41.27
2018-02-22T06:25:41.770Z,39.63
2018-02-22T06:28:07.824Z,39.73
2018-02-22T06:30:34.598Z,37.33
2018-02-22T06:33:00.626Z,41.70
2018-02-22T06:35:26.661Z,41.27
2018-02-22T06:37:52.718Z,39.27
2018-02-22T06:40:18.722Z,44.83
2018-02-22T06:42:44.714Z,43.53
2018-02-22T06:45:10.820Z,39.73
2018-02-22T06:47:36.870Z,35.93
2018-02-22T06:50:02.959Z,40.60
2018-02-22T06:52:29.011Z,40.70
2018-02-22T06:54:54.950Z,37.20
2018-02-22T06:57:21.238Z,38.10
2018-02-22T06:59:47.297Z,37.00
2018-02-22T07:02:13.345Z,42.63
2018-02-22T07:04:39.411Z,38.77
2018-02-22T07:07:05.398Z,36.23
2018-02-22T07:09:31.438Z,35.90
2018-02-22T07:11:57.458Z,40.23
2018-02-22T07:14:24.241Z,43.10
2018-02-22T07:16:50.351Z,33.43
2018-02-22T07:19:16.351Z,36.57
2018-02-22T07:21:42.347Z,38.07
2018-02-22T07:24:08.350Z,38.87
2018-02-22T07:26:34.390Z,34.80
2018-02-22T07:29:00.574Z,37.10
2018-02-22T07:31:26.578Z,36.80
2018-02-22T07:33:52.576Z,39.20
2018-02-22T07:36:18.575Z,36.43
2018-02-22T07:38:44.611Z,37.47
2018-02-22T07:41:10.701Z,40.67
2018-02-22T07:43:36.762Z,36.30
2018-02-22T07:46:02.776Z,35.17
2018-02-22T07:48:28.786Z,39.23
2018-02-22T07:50:54.821Z,35.27
2018-02-22T07:53:20.870Z,36.57
2018-02-22T07:55:47.026Z,37.10
2018-02-22T07:58:13.027Z,41.10
2018-02-22T08:00:39.019Z,37.80
2018-02-22T08:03:05.363Z,40.43
2018-02-22T08:05:31.397Z,40.30
2018-02-22T08:07:57.419Z,36.67
2018-02-22T08:10:23.415Z,31.83
2018-02-22T08:12:49.410Z,33.67
2018-02-22T08:15:15.537Z,33.23
2018-02-22T08:17:41.524Z,30.73
2018-02-22T08:20:08.276Z,39.47
2018-02-22T08:22:34.259Z,34.13
2018-02-22T08:25:00.250Z,34.37
2018-02-22T08:27:26.682Z,31.83
2018-02-22T08:29:52.715Z,38.27
2018-02-22T08:32:18.723Z,35.37
2018-02-22T08:34:44.712Z,30.67
2018-02-22T08:37:10.814Z,34.10
2018-02-22T08:39:36.863Z,31.07
2018-02-22T08:42:02.907Z,29.77
2018-02-22T08:44:28.911Z,30.50
2018-02-22T08:46:55.083Z,30.37
2018-02-22T08:49:21.091Z,31.33
2018-02-22T08:51:47.216Z,30.07
2018-02-22T08:54:13.275Z,31.83
2018-02-22T08:56:39.439Z,31.93
2018-02-22T08:59:05.466Z,31.23
2018-02-22T09:01:31.474Z,29.70
2018-02-22T09:03:57.795Z,31.23
2018-02-22T09:06:23.815Z,32.00
2018-02-22T09:08:49.819Z,32.03
2018-02-22T09:11:15.850Z,31.20
2018-02-22T09:13:41.863Z,28.73
2018-02-22T09:16:07.907Z,27.90
2018-02-22T09:18:33.910Z,24.30
2018-02-22T09:20:59.928Z,25.93
2018-02-22T09:23:25.957Z,28.50
2018-02-22T09:25:51.975Z,28.80
2018-02-22T09:28:18.027Z,28.43
2018-02-22T09:30:44.080Z,24.90
2018-02-22T09:33:10.110Z,26.77
2018-02-22T09:35:37.006Z,29.03
2018-02-22T09:38:03.042Z,26.37
2018-02-22T09:40:29.095Z,27.27
2018-02-22T09:42:55.131Z,24.47
2018-02-22T09:45:21.130Z,26.33
2018-02-22T09:47:47.169Z,29.00
2018-02-22T09:50:13.251Z,26.97
2018-02-22T09:52:39.850Z,26.73
2018-02-22T09:55:06.077Z,20.70
2018-02-22T09:57:32.083Z,27.97
2018-02-22T09:59:58.536Z,20.60
2018-02-22T10:02:24.575Z,22.40
2018-02-22T10:04:50.683Z,21.00
2018-02-22T10:07:16.734Z,22.40
2018-02-22T10:09:42.754Z,26.20
2018-02-22T10:12:08.747Z,23.07
2018-02-22T10:14:35.478Z,21.23
2018-02-22T10:17:01.551Z,20.13
2018-02-22T10:19:27.662Z,23.13
2018-02-22T10:21:53.679Z,19.70
2018-02-22T10:24:19.692Z,24.47
2018-02-22T10:26:45.696Z,19.30
2018-02-22T10:29:11.732Z,22.67
2018-02-22T10:31:45.174Z,23.03
2018-02-22T10:34:11.166Z,24.37
2018-02-22T10:36:37.194Z,22.00
2018-02-22T10:39:03.249Z,19.90
2018-02-22T10:41:29.255Z,18.23
2018-02-22T10:43:55.264Z,19.23
2018-02-22T10:46:21.276Z,21.13
2018-02-22T10:48:47.346Z,21.13
2018-02-22T10:51:13.354Z,23.10
2018-02-22T10:53:39.419Z,19.43
2018-02-22T10:56:05.458Z,18.00
2018-02-22T10:58:31.439Z,23.90
2018-02-22T11:01:03.974Z,19.10
2018-02-22T11:03:29.955Z,19.57
2018-02-22T11:05:55.975Z,21.20
2018-02-22T11:08:22.279Z,18.40
2018-02-22T11:10:48.299Z,19.63
2018-02-22T11:13:14.282Z,18.90
2018-02-22T11:15:41.031Z,19.17
2018-02-22T11:18:07.119Z,20.03
2018-02-22T11:20:33.227Z,19.30
2018-02-22T11:22:59.262Z,18.83
2018-02-22T11:25:25.259Z,17.73
2018-02-22T11:27:51.379Z,21.47
2018-02-22T11:30:17.710Z,18.60
2018-02-22T11:32:43.714Z,21.97
2018-02-22T11:35:09.735Z,20.33
2018-02-22T11:37:35.751Z,21.23
2018-02-22T11:40:01.831Z,19.67
2018-02-22T11:42:27.983Z,20.13
2018-02-22T11:44:54.735Z,20.50
2018-02-22T11:47:21.184Z,17.03
2018-02-22T11:49:47.229Z,20.40
2018-02-22T11:52:13.315Z,20.87
2018-02-22T11:54:40.260Z,19.53
2018-02-22T11:57:06.248Z,16.50
2018-02-22T11:59:32.227Z,17.50
2018-02-22T12:01:58.296Z,20.63
2018-02-22T12:04:24.337Z,19.40
2018-02-22T12:06:50.358Z,18.40
2018-02-22T12:09:16.367Z,20.57
2018-02-22T12:11:42.351Z,19.67
2018-02-22T12:14:08.359Z,18.87
2018-02-22T12:16:34.468Z,15.87
2018-02-22T12:19:00.494Z,19.07
2018-02-22T12:21:26.523Z,16.80
2018-02-22T12:23:52.546Z,18.03
2018-02-22T12:26:18.559Z,18.50
2018-02-22T12:28:44.612Z,18.70
2018-02-22T12:31:10.691Z,20.17
2018-02-22T12:33:36.820Z,15.07
2018-02-22T12:36:02.851Z,16.33
2018-02-22T12:38:28.845Z,14.47
2018-02-22T12:40:55.264Z,15.20
2018-02-22T12:43:21.291Z,17.47
2018-02-22T12:45:47.354Z,15.87
2018-02-22T12:48:13.390Z,18.57
2018-02-22T12:50:39.394Z,16.80
2018-02-22T12:53:05.374Z,17.30
2018-02-22T12:55:31.377Z,13.83
2018-02-22T12:57:57.702Z,17.37
2018-02-22T13:00:23.719Z,14.13
2018-02-22T13:02:49.716Z,18.17
2018-02-22T13:05:15.758Z,15.50
2018-02-22T13:07:41.798Z,16.40
2018-02-22T13:10:07.836Z,17.23
2018-02-22T13:12:33.879Z,16.70
2018-02-22T13:15:00.347Z,15.10
2018-02-22T13:17:26.334Z,16.00
2018-02-22T13:19:52.403Z,16.30
2018-02-22T13:22:18.390Z,12.73
2018-02-22T13:24:44.414Z,16.53
2018-02-22T13:27:10.441Z,15.73
2018-02-22T13:29:36.655Z,16.73
2018-02-22T13:32:02.646Z,14.97
2018-02-22T13:34:30.762Z,15.47
2018-02-22T13:36:56.915Z,16.30
2018-02-22T13:39:23.035Z,16.13
2018-02-22T13:41:49.282Z,14.40
2018-02-22T13:44:28.314Z,18.33
2018-02-22T13:46:54.651Z,15.83
2018-02-22T13:49:34.544Z,17.57
2018-02-22T13:52:00.872Z,14.07
2018-02-22T13:54:27.248Z,15.77
2018-02-22T13:57:05.830Z,14.60
2018-02-22T13:59:32.148Z,13.63
2018-02-22T14:02:10.704Z,16.77
2018-02-22T14:04:37.055Z,12.80
2018-02-22T14:07:03.389Z,14.40
2018-02-22T14:09:29.713Z,15.57
2018-02-22T14:11:56.125Z,15.73
2018-02-22T14:14:22.531Z,14.27
2018-02-22T14:16:48.839Z,13.93
2018-02-22T14:19:15.172Z,12.27
2018-02-22T14:21:41.474Z,13.50
2018-02-22T14:24:07.855Z,15.63
2018-02-22T14:26:34.606Z,15.83
2018-02-22T14:29:00.923Z,13.63
2018-02-22T14:31:27.275Z,12.00
2018-02-22T14:33:54.295Z,13.97
2018-02-22T14:36:20.554Z,13.00
2018-02-22T14:38:47.559Z,11.90
2018-02-22T14:41:13.961Z,8.80
2018-02-22T14:43:41.004Z,10.33
2018-02-22T14:46:07.195Z,11.73
2018-02-22T14:48:33.343Z,12.33
2018-02-22T14:51:00.251Z,12.07
2018-02-22T14:53:26.446Z,12.57
2018-02-22T14:55:52.583Z,12.67
2018-02-22T14:58:18.629Z,10.13
2018-02-22T15:00:50.655Z,11.87
2018-02-22T15:03:17.432Z,9.93
2018-02-22T15:05:43.456Z,14.87
2018-02-22T15:08:09.511Z,11.97
2018-02-22T15:10:35.550Z,10.97
2018-02-22T15:13:01.547Z,12.53
2018-02-22T15:15:27.638Z,10.60
2018-02-22T15:17:54.395Z,12.73
2018-02-22T15:20:20.478Z,10.73
2018-02-22T15:22:46.546Z,11.90
2018-02-22T15:25:12.543Z,11.63
2018-02-22T15:27:38.559Z,11.63
2018-02-22T15:30:04.559Z,12.50
2018-02-22T15:32:30.737Z,15.20
2018-02-22T15:34:56.967Z,12.27
2018-02-22T15:37:22.994Z,11.57
2018-02-22T15:39:48.985Z,13.50
2018-02-22T15:42:14.994Z,11.10
2018-02-22T15:44:41.063Z,10.63
2018-02-22T15:47:07.074Z,8.53
2018-02-22T15:49:33.191Z,10.17
2018-02-22T15:51:59.214Z,9.70
2018-02-22T15:54:25.287Z,9.27
2018-02-22T15:56:51.367Z,11.30
2018-02-22T15:59:17.379Z,13.27
2018-02-22T16:01:43.397Z,11.10
2018-02-22T16:04:09.390Z,12.43
2018-02-22T16:06:35.435Z,13.50
2018-02-22T16:09:01.479Z,12.37
2018-02-22T16:11:27.576Z,14.27
2018-02-22T16:13:53.619Z,11.90
2018-02-22T16:16:19.616Z,15.20
2018-02-22T16:18:45.658Z,11.10
2018-02-22T16:21:11.731Z,13.40
2018-02-22T16:23:37.736Z,10.87
2018-02-22T16:26:03.792Z,14.87
2018-02-22T16:28:30.342Z,14.63
2018-02-22T16:30:56.341Z,13.73
2018-02-22T16:33:22.694Z,13.60
2018-02-22T16:35:48.703Z,11.50
2018-02-22T16:38:14.739Z,13.67
2018-02-22T16:40:40.774Z,12.10
2018-02-22T16:43:06.767Z,11.73
2018-02-22T16:45:32.795Z,12.53
2018-02-22T16:47:58.830Z,13.47
2018-02-22T16:50:24.846Z,14.03
2018-02-22T16:52:50.855Z,12.63
2018-02-22T16:55:16.867Z,13.20
2018-02-22T16:57:42.883Z,11.77
2018-02-22T17:00:08.911Z,12.40
2018-02-22T17:02:34.916Z,12.87
2018-02-22T17:05:00.932Z,13.40
2018-02-22T17:07:27.823Z,13.40
2018-02-22T17:09:54.115Z,10.97
2018-02-22T17:12:20.150Z,14.00
2018-02-22T17:14:46.226Z,12.30
2018-02-22T17:17:12.239Z,14.30
2018-02-22T17:19:38.246Z,13.90
2018-02-22T17:22:04.270Z,13.37
2018-02-22T17:24:30.314Z,14.70
2018-02-22T17:27:02.506Z,14.23
2018-02-22T17:29:34.722Z,15.50
2018-02-22T17:32:06.785Z,14.57
2018-02-22T17:34:32.850Z,16.80
2018-02-22T17:37:04.863Z,15.80
2018-02-22T17:39:46.269Z,15.40
2018-02-22T17:42:12.387Z,15.50
2018-02-22T17:44:38.427Z,17.50
2018-02-22T17:47:04.450Z,17.07
2018-02-22T17:49:30.464Z,16.10
2018-02-22T17:51:56.573Z,15.97
2018-02-22T17:54:22.557Z,15.40
2018-02-22T17:56:49.399Z,15.03
2018-02-22T17:59:16.196Z,16.17
2018-02-22T18:01:42.232Z,19.90
2018-02-22T18:04:08.255Z,19.60
2018-02-22T18:06:34.275Z,15.70
2018-02-22T18:09:00.338Z,17.00
2018-02-22T18:11:26.375Z,19.57
2018-02-22T18:13:52.375Z,19.17
2018-02-22T18:16:18.694Z,18.93
2018-02-22T18:18:44.691Z,16.87
2018-02-22T18:21:10.819Z,17.67
2018-02-22T18:23:36.906Z,19.20
2018-02-22T18:26:02.946Z,18.17
2018-02-22T18:28:28.965Z,19.70
2018-02-22T18:30:54.974Z,15.33
2018-02-22T18:33:21.763Z,17.93
2018-02-22T18:35:48.158Z,20.07
2018-02-22T18:38:14.619Z,20.97
2018-02-22T18:40:47.454Z,18.00
2018-02-22T18:43:19.468Z,19.40
2018-02-22T18:45:45.454Z,20.33
2018-02-22T18:48:11.491Z,19.50
2018-02-22T18:50:37.478Z,19.97
2018-02-22T18:53:04.035Z,21.17
2018-02-22T18:55:30.054Z,21.80
2018-02-22T18:57:56.095Z,23.37
2018-02-22T19:00:22.214Z,20.57
2018-02-22T19:02:48.292Z,21.20
2018-02-22T19:05:14.311Z,19.37
2018-02-22T19:07:40.412Z,22.40
2018-02-22T19:10:06.428Z,23.17
2018-02-22T19:12:32.458Z,22.87
2018-02-22T19:14:58.478Z,28.53
2018-02-22T19:17:24.472Z,21.10
2018-02-22T19:19:50.595Z,25.50
2018-02-22T19:22:17.351Z,23.00
2018-02-22T19:24:43.389Z,23.67
2018-02-22T19:27:09.598Z,24.40
2018-02-22T19:29:35.629Z,20.93
2018-02-22T19:32:01.642Z,21.57
2018-02-22T19:34:27.760Z,21.10
2018-02-22T19:36:53.784Z,23.10
2018-02-22T19:39:20.546Z,25.00
2018-02-22T19:41:46.584Z,29.43
2018-02-22T19:44:12.655Z,24.63
2018-02-22T19:46:38.650Z,22.93
2018-02-22T19:49:04.671Z,23.30
2018-02-22T19:51:30.747Z,25.30
2018-02-22T19:53:56.786Z,27.20
2018-02-22T19:56:23.107Z,24.93
2018-02-22T19:58:49.126Z,22.57
2018-02-22T20:01:15.178Z,27.60
2018-02-22T20:03:41.174Z,24.03
2018-02-22T20:06:07.247Z,25.30
2018-02-22T20:08:33.276Z,22.00
2018-02-22T20:10:59.274Z,23.13
2018-02-22T20:13:25.310Z,24.40
2018-02-22T20:15:51.330Z,28.87
2018-02-22T20:18:17.322Z,21.47
2018-02-22T20:20:43.338Z,28.13
2018-02-22T20:23:09.390Z,28.53
2018-02-22T20:25:35.378Z,24.97
2018-02-22T20:28:01.414Z,25.90
2018-02-22T20:30:27.476Z,24.90
2018-02-22T20:32:53.527Z,25.63
2018-02-22T20:35:19.519Z,28.77
2018-02-22T20:37:45.500Z,25.67
2018-02-22T20:40:11.542Z,27.27
2018-02-22T20:42:37.635Z,25.37
2018-02-22T20:45:03.786Z,30.10
2018-02-22T20:47:29.837Z,28.03
2018-02-22T20:49:55.883Z,27.47
2018-02-22T20:52:24.207Z,27.43
2018-02-22T20:54:53.247Z,28.23
2018-02-22T20:57:19.296Z,25.50
2018-02-22T20:59:45.329Z,24.67
2018-02-22T21:02:11.335Z,26.07
2018-02-22T21:04:37.391Z,27.60
2018-02-22T21:07:03.431Z,31.23
2018-02-22T21:09:29.445Z,26.63
2018-02-22T21:11:55.471Z,26.23
2018-02-22T21:14:21.471Z,28.77
2018-02-22T21:16:47.546Z,28.17
2018-02-22T21:19:13.532Z,26.73
2018-02-22T21:21:39.874Z,27.23
2018-02-22T21:24:05.866Z,25.40
2018-02-22T21:26:32.188Z,29.00
2018-02-22T21:28:58.554Z,30.97
2018-02-22T21:31:24.586Z,28.57
2018-02-22T21:33:50.696Z,27.20
2018-02-22T21:36:17.719Z,25.67
2018-02-22T21:38:43.739Z,30.43
2018-02-22T21:41:09.764Z,26.63
2018-02-22T21:43:35.805Z,30.50
2018-02-22T21:46:02.161Z,28.43
2018-02-22T21:48:28.163Z,25.83
2018-02-22T21:50:54.147Z,27.63
2018-02-22T21:53:20.241Z,30.10
2018-02-22T21:55:46.651Z,25.83
2018-02-22T21:58:12.645Z,34.20
2018-02-22T22:00:38.666Z,29.07
2018-02-22T22:03:04.654Z,32.23
2018-02-22T22:05:30.794Z,30.53
2018-02-22T22:07:56.882Z,32.23
2018-02-22T22:10:22.882Z,30.53
2018-02-22T22:12:49.703Z,30.47
2018-02-22T22:15:15.707Z,29.93
2018-02-22T22:17:41.742Z,33.50
2018-02-22T22:20:07.844Z,29.67
2018-02-22T22:22:33.854Z,30.37
2018-02-22T22:24:59.863Z,30.07
2018-02-22T22:27:25.930Z,31.93
2018-02-22T22:29:51.946Z,33.57
2018-02-22T22:32:17.957Z,32.40
2018-02-22T22:34:44.678Z,30.07
2018-02-22T22:37:10.836Z,32.27
2018-02-22T22:39:36.891Z,31.23
2018-02-22T22:42:02.906Z,35.60
2018-02-22T22:44:28.938Z,32.70
2018-02-22T22:46:55.394Z,30.93
2018-02-22T22:49:21.399Z,34.23
2018-02-22T22:51:47.522Z,33.88
2018-02-22T22:54:13.509Z,33.37
2018-02-22T22:56:39.544Z,36.47
2018-02-22T22:59:05.556Z,33.90
2018-02-22T23:01:31.571Z,33.33
2018-02-22T23:03:57.599Z,32.97
2018-02-22T23:06:23.662Z,34.07
2018-02-22T23:08:49.655Z,35.70
2018-02-22T23:11:15.675Z,34.57
2018-02-22T23:13:41.699Z,37.07
2018-02-22T23:16:07.790Z,33.57
2018-02-22T23:18:33.823Z,35.80
2018-02-22T23:20:59.826Z,36.90
2018-02-22T23:23:26.546Z,37.90
2018-02-22T23:25:52.533Z,35.40
2018-02-22T23:28:18.559Z,35.17
2018-02-22T23:30:44.595Z,39.30
2018-02-22T23:33:10.669Z,36.40
2018-02-22T23:35:36.750Z,35.97
2018-02-22T23:38:02.750Z,34.23
2018-02-22T23:40:32.511Z,32.23
2018-02-22T23:43:01.148Z,38.47
2018-02-22T23:45:27.306Z,38.43
2018-02-22T23:47:53.370Z,37.10
2018-02-22T23:50:19.374Z,33.50
2018-02-22T23:52:45.403Z,36.83
2018-02-22T23:55:11.666Z,37.17
2018-02-22T23:57:37.695Z,36.83
